Time;durP1;ratioP1;P1;durP2;ratioP2;P2;SDS_P1;SDS_P2;PMS_P1;PMS_P2;Temp;Humidity;BMP_temperature;BMP_pressure;BME280_temperature;BME280_humidity;BME280_pressure;Samples;Min_cycle;Max_cycle;Signal;HPM_P1;HPM_P2
2022/07/20 00:01:02;;;;;;;12.57;6.32;;;24.10;62.60;;;;;;5081964;28;20115;-65
2022/07/20 00:03:29;;;;;;;11.80;5.93;;;24.20;62.50;;;;;;5093477;28;20032;-64
2022/07/20 00:05:54;;;;;;;11.48;5.72;;;24.10;62.70;;;;;;5090911;28;20023;-65
2022/07/20 00:11:19;;;;;;;11.20;5.97;;;24.00;62.80;;;;;;5085039;28;20024;-65
2022/07/20 00:11:19;;;;;;;12.23;5.95;;;24.10;62.90;;;;;;5081862;28;20120;-65
2022/07/20 00:13:48;;;;;;;9.57;5.45;;;24.10;62.80;;;;;;5075510;28;20122;-65
2022/07/20 00:16:13;;;;;;;12.65;5.82;;;24.10;62.70;;;;;;5085595;28;20032;-65
2022/07/20 00:18:39;;;;;;;12.65;5.50;;;24.10;62.60;;;;;;5095272;28;20020;-64
2022/07/20 00:21:05;;;;;;;9.13;5.32;;;24.10;62.60;;;;;;5095376;28;20028;-63
2022/07/20 00:23:31;;;;;;;10.50;5.35;;;24.10;62.70;;;;;;5110843;28;20111;-64
2022/07/20 00:25:57;;;;;;;11.63;5.38;;;24.10;62.70;;;;;;5089762;28;20103;-64
2022/07/20 00:28:23;;;;;;;12.65;5.95;;;24.00;62.70;;;;;;5087803;28;20131;-64
2022/07/20 00:30:48;;;;;;;10.43;5.28;;;23.90;62.70;;;;;;5106133;28;20452;-65
2022/07/20 00:33:14;;;;;;;10.52;5.22;;;23.90;63.20;;;;;;5107035;28;20048;-65
2022/07/20 00:35:39;;;;;;;14.10;5.30;;;23.80;63.50;;;;;;5075496;28;20102;-65
2022/07/20 00:38:05;;;;;;;12.75;5.50;;;23.80;63.40;;;;;;5075959;28;20074;-65
2022/07/20 00:40:34;;;;;;;12.48;5.40;;;23.80;63.40;;;;;;5083877;28;20032;-66
2022/07/20 00:42:59;;;;;;;7.32;5.10;;;23.90;63.50;;;;;;5088352;28;20066;-65
2022/07/20 00:45:25;;;;;;;9.68;5.20;;;23.80;63.50;;;;;;5077872;28;20025;-65
2022/07/20 00:47:51;;;;;;;9.35;5.28;;;23.80;63.70;;;;;;5110016;28;20032;-65
2022/07/20 00:50:17;;;;;;;9.55;4.72;;;23.80;63.80;;;;;;5099044;28;20363;-64
2022/07/20 00:52:43;;;;;;;10.65;5.22;;;23.90;63.60;;;;;;5101644;28;20024;-64
2022/07/20 00:55:09;;;;;;;9.88;4.88;;;23.90;63.60;;;;;;5107185;28;20050;-64
2022/07/20 00:57:35;;;;;;;8.40;4.70;;;23.90;63.50;;;;;;5123648;27;20028;-65
2022/07/20 01:00:01;;;;;;;9.63;5.15;;;23.90;63.80;;;;;;5115549;28;20313;-65
2022/07/20 01:02:30;;;;;;;11.38;5.35;;;23.90;64.10;;;;;;5109422;27;20020;-65
2022/07/20 01:04:55;;;;;;;11.25;5.00;;;23.80;64.40;;;;;;5106990;28;20027;-65
2022/07/20 01:07:21;;;;;;;8.73;4.70;;;23.70;64.60;;;;;;5116799;28;20068;-65
2022/07/20 01:09:46;;;;;;;12.65;4.85;;;23.70;64.80;;;;;;5125879;27;20015;-65
2022/07/20 01:12:12;;;;;;;10.52;4.75;;;23.70;65.20;;;;;;5127798;27;20031;-65
2022/07/20 01:14:38;;;;;;;9.40;5.00;;;23.60;65.00;;;;;;5117846;27;20028;-65
2022/07/20 01:17:04;;;;;;;11.80;4.57;;;23.60;65.20;;;;;;5119172;28;20032;-65
2022/07/20 01:19:29;;;;;;;11.80;4.82;;;23.50;65.40;;;;;;5117501;28;20024;-64
2022/07/20 01:21:55;;;;;;;12.25;4.93;;;23.50;65.50;;;;;;5115984;28;20177;-65
2022/07/20 01:24:21;;;;;;;12.77;5.25;;;23.60;65.40;;;;;;5115660;28;20024;-65
2022/07/20 01:26:49;;;;;;;13.98;5.15;;;23.50;65.50;;;;;;5116506;28;20108;-65
2022/07/20 01:29:15;;;;;;;11.95;5.45;;;23.50;65.80;;;;;;5112524;27;20425;-65
2022/07/20 01:31:41;;;;;;;9.45;4.90;;;23.60;65.50;;;;;;5116552;27;20051;-65
2022/07/20 01:34:07;;;;;;;8.52;4.85;;;23.60;65.20;;;;;;5114809;27;20119;-65
2022/07/20 01:36:33;;;;;;;9.63;4.80;;;23.60;65.20;;;;;;5109400;28;20076;-65
2022/07/20 01:39:01;;;;;;;9.60;4.32;;;23.60;65.20;;;;;;5115823;28;20032;-65
2022/07/20 01:41:27;;;;;;;8.27;4.22;;;23.70;65.20;;;;;;5116775;27;20023;-65
2022/07/20 01:43:52;;;;;;;10.88;4.75;;;23.60;65.00;;;;;;5117456;28;20026;-65
2022/07/20 01:46:18;;;;;;;7.80;4.50;;;23.60;65.00;;;;;;5110564;27;20480;-65
2022/07/20 01:48:44;;;;;;;12.40;4.95;;;23.60;65.10;;;;;;5117189;27;20328;-64
2022/07/20 01:51:09;;;;;;;10.88;4.40;;;23.60;65.10;;;;;;5112850;28;20016;-65
2022/07/20 01:53:35;;;;;;;8.95;4.20;;;23.60;65.00;;;;;;5112238;27;20519;-64
2022/07/20 01:56:01;;;;;;;9.63;4.38;;;23.60;65.20;;;;;;5120903;27;20408;-66
2022/07/20 01:58:26;;;;;;;13.32;4.28;;;23.50;65.20;;;;;;5115992;27;20416;-64
2022/07/20 02:00:55;;;;;;;9.82;4.82;;;23.50;65.20;;;;;;5115142;28;20455;-66
2022/07/20 02:03:23;;;;;;;8.25;4.53;;;23.50;65.50;;;;;;5118058;28;20032;-66
2022/07/20 02:05:49;;;;;;;15.35;4.78;;;23.40;66.00;;;;;;5117391;28;20019;-66
2022/07/20 02:08:15;;;;;;;9.20;4.55;;;23.20;66.50;;;;;;5117087;28;20031;-65
2022/07/20 02:10:40;;;;;;;8.82;4.60;;;23.00;67.10;;;;;;5115542;28;20084;-65
2022/07/20 02:13:09;;;;;;;8.13;4.38;;;23.10;67.30;;;;;;5117781;28;20020;-65
2022/07/20 02:18:21;;;;;;;12.20;4.50;;;23.20;67.10;;;;;;5110350;28;20167;-66
2022/07/20 02:20:46;;;;;;;8.48;4.03;;;23.20;67.20;;;;;;5113957;27;20085;-65
2022/07/20 02:23:12;;;;;;;11.43;4.63;;;23.10;67.50;;;;;;5117350;28;20335;-66
2022/07/20 02:25:38;;;;;;;8.70;4.93;;;22.90;67.90;;;;;;5111903;27;20062;-66
2022/07/20 02:28:05;;;;;;;9.75;4.38;;;22.70;68.30;;;;;;5106826;27;20048;-65
2022/07/20 02:30:31;;;;;;;9.82;4.70;;;22.50;68.70;;;;;;5102771;28;20400;-65
2022/07/20 02:32:57;;;;;;;10.07;4.72;;;22.30;69.30;;;;;;5110000;28;20031;-66
2022/07/20 02:35:22;;;;;;;8.85;4.45;;;22.10;70.10;;;;;;5115367;28;20024;-65
2022/07/20 02:37:48;;;;;;;8.98;5.22;;;21.90;70.60;;;;;;5110513;28;20388;-65
2022/07/20 02:40:14;;;;;;;9.10;4.93;;;21.70;71.30;;;;;;5117335;27;20035;-65
2022/07/20 02:42:39;;;;;;;9.10;4.88;;;21.50;71.60;;;;;;5107128;27;20024;-65
2022/07/20 02:45:06;;;;;;;9.50;5.18;;;21.30;72.50;;;;;;5112414;27;20032;-65
2022/07/20 02:47:40;;;;;;;11.25;6.13;;;21.10;73.10;;;;;;5109661;28;20051;-65
2022/07/20 02:50:06;;;;;;;15.00;6.38;;;20.90;73.30;;;;;;5120064;27;20073;-65
2022/07/20 02:52:32;;;;;;;9.52;5.72;;;20.60;74.30;;;;;;5105339;28;20026;-65
2022/07/20 02:54:58;;;;;;;9.23;5.38;;;20.40;74.80;;;;;;5111530;27;20027;-66
2022/07/20 02:57:23;;;;;;;10.50;5.13;;;20.20;76.30;;;;;;5116044;28;20063;-65
2022/07/20 02:59:49;;;;;;;11.32;5.40;;;20.00;77.10;;;;;;5109278;27;20039;-65
2022/07/20 03:02:14;;;;;;;9.38;4.50;;;19.90;78.10;;;;;;5115664;28;20479;-65
2022/07/20 03:04:40;;;;;;;9.45;5.00;;;19.70;79.30;;;;;;5105581;27;20032;-65
2022/07/20 03:07:06;;;;;;;8.98;5.07;;;19.50;80.40;;;;;;5120658;27;20015;-65
2022/07/20 03:09:31;;;;;;;7.00;4.60;;;19.50;80.80;;;;;;5110647;28;20092;-65
2022/07/20 03:11:57;;;;;;;9.45;4.72;;;19.60;79.70;;;;;;5116075;28;20080;-64
2022/07/20 03:14:22;;;;;;;10.32;4.80;;;19.70;79.50;;;;;;5111613;28;20035;-63
2022/07/20 03:16:51;;;;;;;9.05;4.93;;;19.80;79.20;;;;;;5111951;27;20102;-64
2022/07/20 03:19:17;;;;;;;9.50;4.63;;;19.60;80.00;;;;;;5113845;28;20106;-63
2022/07/20 03:21:43;;;;;;;8.15;4.50;;;19.40;80.40;;;;;;5106065;27;20107;-64
2022/07/20 03:24:08;;;;;;;8.75;4.35;;;19.20;81.00;;;;;;5114492;28;20363;-66
2022/07/20 03:26:34;;;;;;;7.35;4.57;;;19.10;81.90;;;;;;5105711;28;20417;-65
2022/07/20 03:28:59;;;;;;;8.48;4.60;;;19.10;82.10;;;;;;5109950;27;20374;-65
2022/07/20 03:31:28;;;;;;;11.95;4.78;;;19.10;82.20;;;;;;5113287;28;20416;-65
2022/07/20 03:33:54;;;;;;;9.02;4.55;;;19.20;82.00;;;;;;5109204;27;20475;-65
2022/07/20 03:36:19;;;;;;;8.75;5.43;;;19.30;81.40;;;;;;5114760;27;20103;-65
2022/07/20 03:38:45;;;;;;;10.80;5.05;;;19.40;80.80;;;;;;5112802;27;20027;-64
2022/07/20 03:41:11;;;;;;;10.35;5.28;;;19.50;80.50;;;;;;5110631;28;20085;-65
2022/07/20 03:43:36;;;;;;;8.88;4.47;;;19.50;80.50;;;;;;5106656;27;20434;-65
2022/07/20 03:46:04;;;;;;;8.13;4.75;;;19.50;80.70;;;;;;5110832;28;20088;-65
2022/07/20 03:48:30;;;;;;;10.88;4.85;;;19.40;80.90;;;;;;5112802;27;20118;-65
2022/07/20 03:50:56;;;;;;;9.55;4.95;;;19.10;82.10;;;;;;5113879;27;20118;-65
2022/07/20 03:53:21;;;;;;;8.25;5.13;;;18.80;83.10;;;;;;5112201;27;20070;-65
2022/07/20 03:55:47;;;;;;;10.68;5.10;;;18.70;83.10;;;;;;5109578;27;20324;-65
2022/07/20 03:58:16;;;;;;;8.75;5.10;;;18.70;82.50;;;;;;5112504;27;20036;-64
2022/07/20 04:00:42;;;;;;;10.80;5.30;;;18.90;81.90;;;;;;5112234;28;20026;-65
2022/07/20 04:03:08;;;;;;;9.50;4.95;;;19.10;81.50;;;;;;5112056;27;20027;-64
2022/07/20 04:05:34;;;;;;;7.88;4.93;;;19.10;81.60;;;;;;5115113;28;20348;-65
2022/07/20 04:08:00;;;;;;;6.57;4.78;;;19.10;81.40;;;;;;5110736;28;20024;-65
2022/07/20 04:10:25;;;;;;;8.43;4.70;;;19.10;81.20;;;;;;5116293;27;20027;-65
2022/07/20 04:12:52;;;;;;;8.70;5.05;;;19.20;80.90;;;;;;5111246;27;20519;-64
2022/07/20 04:15:17;;;;;;;10.27;4.65;;;19.40;80.20;;;;;;5112523;28;20034;-65
2022/07/20 04:17:43;;;;;;;7.75;4.57;;;19.50;80.60;;;;;;5115153;28;20024;-64
2022/07/20 04:20:09;;;;;;;9.10;4.95;;;19.50;80.80;;;;;;5109425;28;20020;-64
2022/07/20 04:22:35;;;;;;;8.65;4.90;;;19.40;80.90;;;;;;5105815;28;20035;-64
2022/07/20 04:25:01;;;;;;;10.43;5.13;;;19.30;81.00;;;;;;5113281;28;20031;-65
2022/07/20 04:27:26;;;;;;;7.65;4.60;;;19.40;80.70;;;;;;5111296;28;20431;-65
2022/07/20 04:29:52;;;;;;;9.52;5.05;;;19.50;80.10;;;;;;5109292;28;20019;-65
2022/07/20 04:32:20;;;;;;;10.43;4.70;;;19.70;79.80;;;;;;5101861;28;20040;-65
2022/07/20 04:34:46;;;;;;;7.53;4.40;;;19.70;79.80;;;;;;5112800;28;20031;-65
2022/07/20 04:37:12;;;;;;;8.13;4.65;;;19.70;80.20;;;;;;5110646;28;20020;-65
2022/07/20 04:39:37;;;;;;;8.80;4.57;;;19.70;80.00;;;;;;5107646;28;20103;-65
2022/07/20 04:42:03;;;;;;;8.20;4.53;;;19.60;80.40;;;;;;5105868;28;20039;-65
2022/07/20 04:44:29;;;;;;;10.35;4.57;;;19.70;80.20;;;;;;5106007;28;20035;-65
2022/07/20 04:46:55;;;;;;;8.02;4.68;;;19.60;81.80;;;;;;5111512;28;20403;-65
2022/07/20 04:49:21;;;;;;;9.70;5.03;;;19.50;81.70;;;;;;5107418;28;20029;-65
2022/07/20 04:51:46;;;;;;;9.10;4.82;;;19.40;82.50;;;;;;5111708;28;20085;-65
2022/07/20 04:54:12;;;;;;;10.68;4.40;;;19.30;82.30;;;;;;5114415;28;20107;-65
2022/07/20 04:56:37;;;;;;;8.60;4.60;;;19.40;82.30;;;;;;5110819;28;20023;-65
2022/07/20 04:59:04;;;;;;;8.20;4.38;;;19.40;82.50;;;;;;5115084;28;20102;-65
2022/07/20 05:01:30;;;;;;;8.32;4.60;;;19.30;82.60;;;;;;5112047;28;20319;-66
2022/07/20 05:03:56;;;;;;;9.13;4.85;;;19.30;82.90;;;;;;5113688;28;20027;-65
2022/07/20 05:06:22;;;;;;;10.65;5.10;;;19.30;83.10;;;;;;5123568;28;20424;-65
2022/07/20 05:08:48;;;;;;;9.25;5.50;;;19.30;84.10;;;;;;5110944;28;20028;-65
2022/07/20 05:11:14;;;;;;;10.15;4.85;;;19.30;84.10;;;;;;5106505;28;20034;-65
2022/07/20 05:13:40;;;;;;;7.80;4.93;;;19.40;83.60;;;;;;5110684;28;20098;-65
2022/07/20 05:16:06;;;;;;;9.45;5.03;;;19.40;83.00;;;;;;5112023;28;20114;-65
2022/07/20 05:18:32;;;;;;;9.20;4.70;;;19.50;82.00;;;;;;5115016;28;20024;-65
2022/07/20 05:20:58;;;;;;;8.77;4.65;;;19.80;81.30;;;;;;5115969;28;20035;-65
2022/07/20 05:23:24;;;;;;;11.00;4.80;;;20.00;80.70;;;;;;5107620;28;20030;-65
2022/07/20 05:25:49;;;;;;;10.13;5.13;;;20.20;80.20;;;;;;5102254;28;20095;-65
2022/07/20 05:28:20;;;;;;;8.48;4.78;;;20.30;79.70;;;;;;5110417;28;20027;-64
2022/07/20 05:30:47;;;;;;;10.40;4.90;;;20.40;79.10;;;;;;5100071;28;20030;-65
2022/07/20 05:33:13;;;;;;;8.45;4.90;;;20.50;80.00;;;;;;5105713;28;20024;-69
2022/07/20 05:35:38;;;;;;;6.90;4.30;;;20.50;80.60;;;;;;5109811;28;20103;-71
2022/07/20 05:38:04;;;;;;;9.00;5.45;;;20.70;80.30;;;;;;5109211;28;20103;-64
2022/07/20 05:40:30;;;;;;;8.82;4.60;;;20.90;81.00;;;;;;5105400;28;20031;-65
2022/07/20 05:42:56;;;;;;;10.23;4.75;;;20.90;81.30;;;;;;5116252;28;20085;-65
2022/07/20 05:45:21;;;;;;;11.00;4.57;;;21.10;79.50;;;;;;5110251;28;20023;-65
2022/07/20 05:47:47;;;;;;;7.85;4.60;;;21.10;78.60;;;;;;5112136;27;20068;-65
2022/07/20 05:50:13;;;;;;;7.88;4.60;;;21.30;78.60;;;;;;5111036;28;20036;-65
2022/07/20 05:52:38;;;;;;;9.27;5.10;;;21.50;78.30;;;;;;5117142;28;20023;-65
2022/07/20 05:55:05;;;;;;;9.20;4.82;;;21.70;77.40;;;;;;5122841;27;20038;-65
2022/07/20 05:57:33;;;;;;;15.25;4.68;;;22.00;75.90;;;;;;5119254;27;20035;-65
2022/07/20 05:59:59;;;;;;;8.45;4.65;;;22.20;75.90;;;;;;5117729;27;20031;-65
2022/07/20 06:02:25;;;;;;;8.60;4.78;;;22.50;77.10;;;;;;5112707;28;20489;-65
2022/07/20 06:04:50;;;;;;;9.82;4.53;;;22.60;75.30;;;;;;5109819;27;20089;-66
2022/07/20 06:07:16;;;;;;;8.18;4.55;;;22.90;75.00;;;;;;5117037;27;20040;-64
2022/07/20 06:09:42;;;;;;;8.23;4.50;;;23.10;74.80;;;;;;5114472;28;20019;-64
2022/07/20 06:12:08;;;;;;;10.48;4.85;;;23.30;74.40;;;;;;5115312;28;20034;-63
2022/07/20 06:14:33;;;;;;;9.50;4.78;;;23.50;72.30;;;;;;5112093;28;20038;-64
2022/07/20 06:16:59;;;;;;;10.70;5.45;;;23.60;72.60;;;;;;5116768;28;20366;-64
2022/07/20 06:19:25;;;;;;;10.55;5.50;;;23.80;72.40;;;;;;5117522;28;20444;-66
2022/07/20 06:21:53;;;;;;;11.32;6.57;;;23.90;72.40;;;;;;5117765;28;20097;-65
2022/07/20 06:24:19;;;;;;;11.90;6.47;;;24.10;73.20;;;;;;5117140;27;20459;-64
2022/07/20 06:26:46;;;;;;;11.35;5.70;;;24.20;74.00;;;;;;5117738;28;20051;-65
2022/07/20 06:29:12;;;;;;;12.77;5.50;;;24.20;73.80;;;;;;5115772;28;20106;-65
2022/07/20 06:31:37;;;;;;;10.20;5.25;;;24.20;73.40;;;;;;5117410;28;20448;-66
2022/07/20 06:34:05;;;;;;;8.40;5.10;;;24.30;72.90;;;;;;5117606;28;20031;-65
2022/07/20 06:36:31;;;;;;;10.73;5.63;;;24.20;73.00;;;;;;5115701;28;20027;-65
2022/07/20 06:38:56;;;;;;;9.07;5.25;;;24.20;73.30;;;;;;5116909;28;20028;-65
2022/07/20 06:41:22;;;;;;;12.18;5.65;;;24.30;73.70;;;;;;5117412;28;20051;-65
2022/07/20 06:43:53;;;;;;;10.57;5.22;;;24.30;74.60;;;;;;5117361;28;20031;-66
2022/07/20 06:46:18;;;;;;;11.75;5.55;;;24.50;74.30;;;;;;5119186;27;20432;-65
2022/07/20 06:48:44;;;;;;;12.35;5.60;;;24.80;73.90;;;;;;5131080;27;20083;-64
2022/07/20 06:51:10;;;;;;;10.70;5.65;;;25.00;73.00;;;;;;5104010;27;20028;-64
2022/07/20 06:53:36;;;;;;;12.52;5.70;;;25.20;73.10;;;;;;5110693;28;20027;-65
2022/07/20 06:56:01;;;;;;;10.13;5.20;;;25.50;71.80;;;;;;5089800;28;20707;-64
2022/07/20 06:58:27;;;;;;;9.55;4.82;;;25.90;71.00;;;;;;5093715;28;20038;-65
2022/07/20 07:00:53;;;;;;;8.13;5.38;;;26.50;70.30;;;;;;5090498;28;20077;-64
2022/07/20 07:03:18;;;;;;;11.48;5.05;;;26.90;70.10;;;;;;5090582;28;20032;-64
2022/07/20 07:05:44;;;;;;;11.32;5.15;;;27.00;70.00;;;;;;5093771;27;20072;-64
2022/07/20 07:08:09;;;;;;;12.00;5.00;;;27.30;69.50;;;;;;5093282;28;20084;-64
2022/07/20 07:10:35;;;;;;;9.80;4.53;;;27.60;63.80;;;;;;5090096;28;20411;-64
2022/07/20 07:13:01;;;;;;;7.68;4.28;;;27.80;60.00;;;;;;5095525;28;20077;-64
2022/07/20 07:15:26;;;;;;;11.10;4.10;;;28.00;61.00;;;;;;5090190;28;20032;-64
2022/07/20 07:17:52;;;;;;;13.65;4.88;;;28.20;60.60;;;;;;5091775;28;20036;-64
2022/07/20 07:20:17;;;;;;;8.35;4.50;;;28.20;59.40;;;;;;5091943;28;20495;-64
2022/07/20 07:22:43;;;;;;;10.05;4.53;;;28.40;61.00;;;;;;5100860;28;20024;-65
2022/07/20 07:25:09;;;;;;;9.65;4.57;;;28.60;60.40;;;;;;5109449;27;20019;-64
2022/07/20 07:27:34;;;;;;;6.85;4.80;;;28.70;56.40;;;;;;5107826;27;20056;-64
2022/07/20 07:30:00;;;;;;;9.57;4.90;;;28.80;57.90;;;;;;5102882;28;20444;-65
2022/07/20 07:32:26;;;;;;;10.88;4.72;;;28.80;57.70;;;;;;5115476;28;20019;-64
2022/07/20 07:34:51;;;;;;;12.90;4.68;;;29.00;58.20;;;;;;5106191;28;20660;-64
2022/07/20 07:37:17;;;;;;;7.65;4.20;;;29.40;55.60;;;;;;5108874;27;20106;-64
2022/07/20 07:39:43;;;;;;;10.27;4.60;;;30.10;54.60;;;;;;5114730;28;20049;-65
2022/07/20 07:42:08;;;;;;;7.40;4.53;;;31.20;53.40;;;;;;5114585;28;21652;-64
2022/07/20 07:44:34;;;;;;;11.60;4.55;;;32.30;51.90;;;;;;5116129;28;20027;-65
2022/07/20 07:47:00;;;;;;;10.82;4.50;;;33.10;50.90;;;;;;5109150;28;20047;-64
2022/07/20 07:49:25;;;;;;;18.70;5.03;;;33.60;49.20;;;;;;5110177;28;20027;-65
2022/07/20 07:51:51;;;;;;;6.53;3.72;;;33.60;48.50;;;;;;5112373;28;20424;-64
2022/07/20 07:54:17;;;;;;;6.60;3.97;;;33.80;49.30;;;;;;5111422;28;20035;-64
2022/07/20 07:56:42;;;;;;;11.45;4.60;;;34.00;48.50;;;;;;5115754;28;20032;-65
2022/07/20 07:59:08;;;;;;;6.97;4.00;;;34.60;47.70;;;;;;5115759;28;20032;-74
2022/07/20 08:01:34;;;;;;;7.22;4.63;;;34.70;48.30;;;;;;5109136;28;20019;-66
2022/07/20 08:04:04;;;;;;;7.63;4.80;;;34.30;48.00;;;;;;5115056;28;21024;-66
2022/07/20 08:06:30;;;;;;;11.20;5.00;;;33.90;48.40;;;;;;5114742;28;20034;-65
2022/07/20 08:08:57;;;;;;;5.50;3.67;;;33.80;48.40;;;;;;5116560;27;20027;-66
2022/07/20 08:11:23;;;;;;;11.43;4.45;;;33.80;49.00;;;;;;5114566;28;20032;-66
2022/07/20 08:13:48;;;;;;;12.65;4.30;;;34.50;48.80;;;;;;5114887;28;20452;-66
2022/07/20 08:16:14;;;;;;;9.40;4.15;;;34.80;48.10;;;;;;5114349;28;20074;-66
2022/07/20 08:18:40;;;;;;;10.07;5.05;;;34.80;48.40;;;;;;5114712;28;20111;-66
2022/07/20 08:21:06;;;;;;;10.10;5.60;;;35.10;47.90;;;;;;5115771;28;20100;-66
2022/07/20 08:23:31;;;;;;;9.63;4.45;;;35.10;47.90;;;;;;5112632;28;20421;-66
2022/07/20 08:25:57;;;;;;;13.65;4.78;;;34.70;48.50;;;;;;5114227;28;20083;-66
2022/07/20 08:28:23;;;;;;;10.57;5.05;;;35.30;48.30;;;;;;5109825;28;20028;-66
2022/07/20 08:30:51;;;;;;;8.48;4.85;;;35.90;47.30;;;;;;5116356;28;20019;-66
2022/07/20 08:33:17;;;;;;;9.27;4.70;;;35.70;47.20;;;;;;5113940;28;20336;-66
2022/07/20 08:35:43;;;;;;;10.50;5.63;;;35.80;47.30;;;;;;5123641;27;20030;-67
2022/07/20 08:38:09;;;;;;;10.00;5.00;;;35.60;47.40;;;;;;5113637;28;20116;-66
2022/07/20 08:40:35;;;;;;;8.50;5.28;;;35.30;48.00;;;;;;5114196;28;20035;-66
2022/07/20 08:43:01;;;;;;;8.85;5.20;;;35.20;48.10;;;;;;5112646;28;20023;-66
2022/07/20 08:45:28;;;;;;;10.07;5.03;;;34.90;48.30;;;;;;5110937;28;20318;-67
2022/07/20 08:47:57;;;;;;;10.20;5.40;;;34.90;48.50;;;;;;5118777;28;20047;-67
2022/07/20 08:50:28;;;;;;;10.35;5.65;;;35.20;48.80;;;;;;5112333;28;20121;-66
2022/07/20 08:52:54;;;;;;;9.73;5.78;;;35.60;47.90;;;;;;5095610;28;20021;-67
2022/07/20 08:55:20;;;;;;;8.32;5.22;;;36.40;47.00;;;;;;5095155;28;20028;-66
2022/07/20 08:57:46;;;;;;;10.95;4.88;;;36.70;46.70;;;;;;5104972;28;20042;-66
2022/07/20 09:00:13;;;;;;;7.88;5.28;;;36.80;46.50;;;;;;5115047;28;20031;-67
2022/07/20 09:03:03;;;;;;;6.72;4.40;;;36.80;46.40;;;;;;5114059;28;20380;-67
2022/07/20 09:05:40;;;;;;;9.63;4.80;;;37.50;46.50;;;;;;5104073;28;20339;-67
2022/07/20 09:08:13;;;;;;;9.50;4.65;;;37.10;46.00;;;;;;5111509;28;20038;-66
2022/07/20 09:10:42;;;;;;;9.57;4.88;;;36.90;46.20;;;;;;5114978;28;20046;-67
2022/07/20 09:13:13;;;;;;;8.00;4.97;;;37.70;45.50;;;;;;5112020;28;20118;-65
2022/07/20 09:15:48;;;;;;;7.75;4.95;;;37.70;45.10;;;;;;5115523;28;20024;-66
2022/07/20 09:18:22;;;;;;;7.45;4.60;;;37.70;46.10;;;;;;5113821;28;20035;-66
2022/07/20 09:21:05;;;;;;;8.80;4.75;;;38.20;44.00;;;;;;5107920;28;20486;-65
2022/07/20 09:23:52;;;;;;;7.38;4.30;;;37.80;44.90;;;;;;5117048;28;20344;-67
2022/07/20 09:26:18;;;;;;;7.25;4.70;;;37.60;45.20;;;;;;5118328;27;20099;-64
2022/07/20 09:28:55;;;;;;;8.90;4.63;;;37.80;45.60;;;;;;5118104;27;20477;-64
2022/07/20 09:31:33;;;;;;;7.75;4.53;;;37.50;45.00;;;;;;5116478;28;20316;-64
2022/07/20 09:34:06;;;;;;;7.55;4.80;;;36.80;46.10;;;;;;5098805;28;20067;-64
2022/07/20 09:36:38;;;;;;;7.75;4.95;;;36.90;45.90;;;;;;5099701;28;20016;-68
2022/07/20 09:39:13;;;;;;;10.25;5.18;;;36.80;45.10;;;;;;5119392;28;20023;-67
2022/07/20 09:41:41;;;;;;;13.57;6.03;;;37.00;45.40;;;;;;5114452;27;20028;-67
2022/07/20 09:44:10;;;;;;;8.73;4.60;;;37.20;45.00;;;;;;5118694;28;20420;-66
2022/07/20 09:46:38;;;;;;;8.95;4.40;;;38.20;43.50;;;;;;5113432;28;20035;-66
2022/07/20 09:49:09;;;;;;;8.90;4.45;;;38.90;43.50;;;;;;5107772;27;20052;-66
2022/07/20 09:51:37;;;;;;;8.32;4.85;;;38.50;44.60;;;;;;5110406;28;20339;-66
2022/07/20 09:54:15;;;;;;;13.80;4.72;;;38.90;43.40;;;;;;5119026;28;20032;-66
2022/07/20 09:56:43;;;;;;;10.45;4.50;;;38.90;42.90;;;;;;5116201;28;20336;-66
2022/07/20 09:59:13;;;;;;;9.23;4.05;;;39.40;42.70;;;;;;5115680;28;20035;-67
2022/07/20 10:01:43;;;;;;;6.40;4.00;;;40.00;42.20;;;;;;5117040;28;20059;-67
2022/07/20 10:04:10;;;;;;;6.72;4.47;;;39.40;43.30;;;;;;5115773;28;20119;-66
2022/07/20 10:06:39;;;;;;;8.05;4.40;;;39.40;44.00;;;;;;5113376;28;20415;-66
2022/07/20 10:09:06;;;;;;;9.50;4.55;;;39.70;42.40;;;;;;5117890;28;20032;-65
2022/07/20 10:11:32;;;;;;;7.82;4.25;;;39.40;42.80;;;;;;5115447;28;20024;-66
2022/07/20 10:14:03;;;;;;;8.90;4.50;;;39.50;43.10;;;;;;5114319;27;20035;-66
2022/07/20 10:16:46;;;;;;;10.82;4.80;;;39.00;43.10;;;;;;5117863;28;20016;-66
2022/07/20 10:19:12;;;;;;;10.52;4.95;;;38.70;43.10;;;;;;5091349;27;20329;-66
2022/07/20 10:21:52;;;;;;;7.53;4.30;;;38.60;43.30;;;;;;5109283;28;20530;-66
2022/07/20 10:24:25;;;;;;;6.35;4.60;;;39.20;42.30;;;;;;5115899;28;20031;-66
2022/07/20 10:27:03;;;;;;;7.93;5.13;;;39.30;42.30;;;;;;5114208;28;20377;-66
2022/07/20 10:29:40;;;;;;;8.40;4.25;;;39.30;42.10;;;;;;5115317;28;20327;-66
2022/07/20 10:32:08;;;;;;;9.60;4.30;;;38.90;43.10;;;;;;5116367;28;20374;-66
2022/07/20 10:34:42;;;;;;;7.32;4.03;;;38.80;42.80;;;;;;5115927;28;20323;-66
2022/07/20 10:37:30;;;;;;;8.30;4.05;;;39.60;42.70;;;;;;5116450;28;20032;-66
2022/07/20 10:40:24;;;;;;;8.00;4.85;;;40.00;41.80;;;;;;5115825;28;20324;-66
2022/07/20 10:43:06;;;;;;;9.70;4.45;;;40.00;41.30;;;;;;5114801;28;20031;-65
2022/07/20 10:45:33;;;;;;;5.82;4.05;;;39.40;41.60;;;;;;5108359;28;20066;-66
2022/07/20 10:48:01;;;;;;;8.75;4.25;;;39.20;41.50;;;;;;5117223;28;20056;-66
2022/07/20 10:50:34;;;;;;;7.90;4.30;;;39.70;41.40;;;;;;5114557;27;20020;-66
2022/07/20 10:53:11;;;;;;;8.10;4.47;;;40.40;40.70;;;;;;5104852;28;20036;-66
2022/07/20 10:55:37;;;;;;;7.07;4.30;;;40.20;40.90;;;;;;5114793;28;20442;-67
2022/07/20 10:58:11;;;;;;;7.45;4.60;;;39.70;41.20;;;;;;5116218;28;20023;-66
2022/07/20 11:00:40;;;;;;;7.50;4.32;;;39.60;41.20;;;;;;5115203;28;20408;-67
2022/07/20 11:03:23;;;;;;;9.82;4.25;;;39.60;41.40;;;;;;5117994;28;20081;-66
2022/07/20 11:06:00;;;;;;;;;;;39.90;40.70;;;;;;5112044;28;20102;-66
2022/07/20 11:08:26;;;;;;;7.35;4.20;;;40.50;41.00;;;;;;5125591;27;20192;-66
2022/07/20 11:10:52;;;;;;;8.05;4.47;;;41.10;40.00;;;;;;5125970;27;20102;-66
2022/07/20 11:13:18;;;;;;;11.07;6.93;;;41.30;39.90;;;;;;5117500;28;20100;-66
2022/07/20 11:15:50;;;;;;;8.60;5.53;;;41.10;40.80;;;;;;5115718;28;20320;-65
2022/07/20 11:18:21;;;;;;;7.10;4.22;;;40.90;40.80;;;;;;5117737;28;20059;-66
2022/07/20 11:20:49;;;;;;;9.52;4.50;;;41.00;39.90;;;;;;5130885;27;20027;-66
2022/07/20 11:23:16;;;;;;;8.40;4.22;;;40.30;40.50;;;;;;5130152;27;20027;-66
2022/07/20 11:25:44;;;;;;;7.90;4.78;;;39.50;41.80;;;;;;5113837;28;20374;-66
2022/07/20 11:28:11;;;;;;;7.93;4.30;;;38.90;42.00;;;;;;5117440;28;20126;-66
2022/07/20 11:30:37;;;;;;;8.88;5.28;;;38.40;43.40;;;;;;5116379;28;20032;-66
2022/07/20 11:33:03;;;;;;;10.85;4.95;;;38.60;42.30;;;;;;5116076;27;20035;-66
2022/07/20 11:35:30;;;;;;;12.15;5.45;;;38.30;42.20;;;;;;5117642;27;20065;-66
2022/07/20 11:37:56;;;;;;;8.27;4.90;;;38.10;42.50;;;;;;5126190;27;20019;-66
2022/07/20 11:40:24;;;;;;;7.82;4.72;;;38.30;42.80;;;;;;5113966;28;20020;-67
2022/07/20 11:43:15;;;;;;;10.00;5.18;;;38.60;41.70;;;;;;5116390;28;20028;-66
2022/07/20 11:45:41;;;;;;;7.38;4.60;;;38.90;41.80;;;;;;5104653;28;20023;-67
2022/07/20 11:48:18;;;;;;;6.78;4.85;;;39.40;42.30;;;;;;5115503;28;20435;-66
2022/07/20 11:50:45;;;;;;;13.80;4.85;;;39.50;40.70;;;;;;5110091;28;20099;-67
2022/07/20 11:53:28;;;;;;;7.63;4.65;;;39.10;42.40;;;;;;5118810;27;20035;-66
2022/07/20 11:55:56;;;;;;;9.68;4.47;;;39.50;41.60;;;;;;5107750;28;20336;-66
2022/07/20 11:58:38;;;;;;;7.20;4.68;;;40.30;41.20;;;;;;5114930;28;20374;-66
2022/07/20 12:01:10;;;;;;;9.98;4.55;;;40.60;40.20;;;;;;5115487;28;20024;-67
2022/07/20 12:03:42;;;;;;;8.07;4.35;;;39.70;40.40;;;;;;5115449;27;20019;-67
2022/07/20 12:06:13;;;;;;;8.55;5.10;;;39.20;41.90;;;;;;5116262;27;20031;-66
2022/07/20 12:08:40;;;;;;;10.23;4.85;;;38.30;42.50;;;;;;5115468;28;20035;-65
2022/07/20 12:11:07;;;;;;;9.20;4.70;;;37.60;43.30;;;;;;5112288;28;20032;-67
2022/07/20 12:13:47;;;;;;;6.63;4.68;;;37.20;44.50;;;;;;5114790;28;20387;-66
2022/07/20 12:16:14;;;;;;;8.38;4.65;;;36.80;43.80;;;;;;5116781;28;20027;-65
2022/07/20 12:18:44;;;;;;;8.57;4.50;;;36.20;44.80;;;;;;5119031;27;20068;-65
2022/07/20 12:21:15;;;;;;;10.10;4.72;;;35.90;44.80;;;;;;5116682;28;20019;-65
2022/07/20 12:23:43;;;;;;;6.15;4.80;;;35.50;45.70;;;;;;5115414;27;20054;-64
2022/07/20 12:26:30;;;;;;;7.68;5.15;;;35.50;46.30;;;;;;5113795;28;20038;-65
2022/07/20 12:29:15;;;;;;;11.77;4.32;;;35.80;45.00;;;;;;5110267;27;20031;-65
2022/07/20 12:31:41;;;;;;;9.18;4.97;;;35.90;46.40;;;;;;5108205;28;20492;-65
2022/07/20 12:34:10;;;;;;;11.05;5.30;;;36.20;44.50;;;;;;5111310;28;20047;-66
2022/07/20 12:36:45;;;;;;;10.60;4.80;;;35.80;46.20;;;;;;5114262;28;20027;-66
2022/07/20 12:39:13;;;;;;;11.95;4.57;;;34.90;46.50;;;;;;5106504;27;20072;-65
2022/07/20 12:41:40;;;;;;;12.30;5.88;;;34.20;46.90;;;;;;5113781;28;20039;-65
2022/07/20 12:44:29;;;;;;;39.47;12.30;;;33.50;48.70;;;;;;5114238;28;20030;-65
2022/07/20 12:46:56;;;;;;;41.97;19.90;;;32.40;63.80;;;;;;5123796;28;20047;-70
2022/07/20 12:49:29;;;;;;;19.20;13.55;;;27.80;81.00;;;;;;5116250;28;20023;-68